createdAt,value
2018-09-12T00:00:44.628Z,14.26
2018-09-12T00:03:13.956Z,14.24
2018-09-12T00:05:42.767Z,14.20
2018-09-12T00:08:11.555Z,14.18
2018-09-12T00:10:40.431Z,14.17
2018-09-12T00:13:09.199Z,14.17
2018-09-12T00:15:39.304Z,14.16
2018-09-12T00:18:09.091Z,14.14
2018-09-12T00:20:38.852Z,14.14
2018-09-12T00:23:08.590Z,14.12
2018-09-12T00:25:38.364Z,14.09
2018-09-12T00:28:07.371Z,14.08
2018-09-12T00:30:37.793Z,14.06
2018-09-12T00:33:07.514Z,14.04
2018-09-12T00:35:37.127Z,14.02
2018-09-12T00:38:06.232Z,14.03
2018-09-12T00:40:35.271Z,14.02
2018-09-12T00:43:04.089Z,14.02
2018-09-12T00:45:33.352Z,14.02
2018-09-12T00:48:02.542Z,14.00
2018-09-12T00:50:31.306Z,14.01
2018-09-12T00:53:00.144Z,14.03
2018-09-12T00:55:29.575Z,14.05
2018-09-12T00:57:59.203Z,14.04
2018-09-12T01:00:27.939Z,14.04
2018-09-12T01:02:57.332Z,14.04
2018-09-12T01:05:26.074Z,14.05
2018-09-12T01:07:54.828Z,14.06
2018-09-12T01:10:24.621Z,14.08
2018-09-12T01:12:53.371Z,14.11
2018-09-12T01:15:22.238Z,14.12
2018-09-12T01:17:51.586Z,14.15
2018-09-12T01:20:20.374Z,14.18
2018-09-12T01:22:49.944Z,14.18
2018-09-12T01:25:18.674Z,14.21
2018-09-12T01:27:51.552Z,14.22
2018-09-12T01:30:23.096Z,14.23
2018-09-12T01:32:53.877Z,14.24
2018-09-12T01:35:23.398Z,14.26
2018-09-12T01:37:52.163Z,14.26
2018-09-12T01:40:20.879Z,14.27
2018-09-12T01:42:50.359Z,14.28
2018-09-12T01:45:20.139Z,14.28
2018-09-12T01:47:49.820Z,14.26
2018-09-12T01:50:18.603Z,14.23
2018-09-12T01:52:48.023Z,14.20
2018-09-12T01:55:16.845Z,14.19
2018-09-12T01:57:46.304Z,14.19
2018-09-12T02:00:17.470Z,14.20
2018-09-12T02:02:47.524Z,14.21
2018-09-12T02:05:16.392Z,14.21
2018-09-12T02:07:45.276Z,14.24
2018-09-12T02:10:14.050Z,14.24
2018-09-12T02:12:42.885Z,14.25
2018-09-12T02:15:11.774Z,14.25
2018-09-12T02:17:41.252Z,14.25
2018-09-12T02:20:10.011Z,14.23
2018-09-12T02:22:39.271Z,14.20
2018-09-12T02:25:08.187Z,14.17
2018-09-12T02:27:37.038Z,14.15
2018-09-12T02:30:06.686Z,14.14
2018-09-12T02:32:36.851Z,14.16
2018-09-12T02:35:06.688Z,14.15
2018-09-12T02:37:35.788Z,14.15
2018-09-12T02:43:03.752Z,14.18
2018-09-12T02:45:32.671Z,14.20
2018-09-12T02:48:01.998Z,14.20
2018-09-12T02:50:30.840Z,14.21
2018-09-12T02:52:59.682Z,14.20
2018-09-12T02:55:28.814Z,14.21
2018-09-12T02:57:58.301Z,14.23
2018-09-12T03:00:27.674Z,14.22
2018-09-12T03:02:56.928Z,14.21
2018-09-12T03:05:25.731Z,14.19
2018-09-12T03:07:54.411Z,14.18
2018-09-12T03:10:23.223Z,14.16
2018-09-12T03:12:51.955Z,14.16
2018-09-12T03:15:20.857Z,14.16
2018-09-12T03:17:50.182Z,14.16
2018-09-12T03:20:18.921Z,14.14
2018-09-12T03:22:48.143Z,14.15
2018-09-12T03:25:16.886Z,14.12
2018-09-12T03:27:45.764Z,14.11
2018-09-12T03:30:15.116Z,14.11
2018-09-12T03:32:44.472Z,14.11
2018-09-12T03:35:14.008Z,14.10
2018-09-12T03:37:42.813Z,14.10
2018-09-12T03:40:11.604Z,14.08
2018-09-12T03:42:41.137Z,14.09
2018-09-12T03:45:09.959Z,14.09
2018-09-12T03:47:39.347Z,14.09
2018-09-12T03:50:08.192Z,14.09
2018-09-12T03:52:38.188Z,14.08
2018-09-12T03:55:07.259Z,14.07
2018-09-12T03:57:36.814Z,14.06
2018-09-12T04:00:07.339Z,14.06
2018-09-12T04:02:36.946Z,14.04
2018-09-12T04:05:06.462Z,14.04
2018-09-12T04:07:36.217Z,14.04
2018-09-12T04:10:05.182Z,14.01
2018-09-12T04:12:33.949Z,14.00
2018-09-12T04:15:02.733Z,14.00
2018-09-12T04:17:34.555Z,13.99
2018-09-12T04:20:03.575Z,13.97
2018-09-12T04:22:33.518Z,13.98
2018-09-12T04:25:02.388Z,13.96
2018-09-12T04:27:31.849Z,13.96
2018-09-12T04:30:00.591Z,13.95
2018-09-12T04:32:30.013Z,13.98
2018-09-12T04:34:59.613Z,13.99
2018-09-12T04:37:28.529Z,13.98
2018-09-12T04:39:57.283Z,14.00
2018-09-12T04:42:26.410Z,14.02
2018-09-12T04:44:55.157Z,14.03
2018-09-12T04:47:24.571Z,14.07
2018-09-12T04:49:53.332Z,14.09
2018-09-12T04:52:22.116Z,14.11
2018-09-12T04:54:50.894Z,14.13
2018-09-12T04:57:20.449Z,14.15
2018-09-12T04:59:50.157Z,14.19
2018-09-12T05:02:19.579Z,14.23
2018-09-12T05:04:48.340Z,14.26
2018-09-12T05:07:17.120Z,14.28
2018-09-12T05:09:46.027Z,14.33
2018-09-12T05:12:14.910Z,14.37
2018-09-12T05:14:43.763Z,14.46
2018-09-12T05:17:12.593Z,14.56
2018-09-12T05:19:41.420Z,14.67
2018-09-12T05:22:10.444Z,14.75
2018-09-12T05:24:40.327Z,14.86
2018-09-12T05:27:09.077Z,14.97
2018-09-12T05:29:38.630Z,15.02
2018-09-12T05:32:08.024Z,15.04
2018-09-12T05:34:38.104Z,15.04
2018-09-12T05:37:07.606Z,15.01
2018-09-12T05:39:36.606Z,15.00
2018-09-12T05:42:05.800Z,14.95
2018-09-12T05:44:34.737Z,14.88
2018-09-12T05:47:03.992Z,14.81
2018-09-12T05:49:32.702Z,14.76
2018-09-12T05:52:01.443Z,14.72
2018-09-12T05:54:30.312Z,14.68
2018-09-12T05:56:59.737Z,14.65
2018-09-12T05:59:29.175Z,14.64
2018-09-12T06:01:58.511Z,14.65
2018-09-12T06:04:27.401Z,14.67
2018-09-12T06:06:56.795Z,14.72
2018-09-12T06:09:26.180Z,14.78
2018-09-12T06:11:54.961Z,14.90
2018-09-12T06:14:24.327Z,14.97
2018-09-12T06:16:53.779Z,15.07
2018-09-12T06:19:22.555Z,15.12
2018-09-12T06:21:52.199Z,15.17
2018-09-12T06:24:21.701Z,15.31
2018-09-12T06:26:50.516Z,15.42
2018-09-12T06:29:19.682Z,15.50
2018-09-12T06:31:48.480Z,15.54
2018-09-12T06:34:17.835Z,15.57
2018-09-12T06:36:46.796Z,15.52
2018-09-12T06:39:15.615Z,15.50
2018-09-12T06:41:44.421Z,15.51
2018-09-12T06:44:13.645Z,15.54
2018-09-12T06:46:43.138Z,15.58
2018-09-12T06:49:11.904Z,15.61
2018-09-12T06:51:40.685Z,15.64
2018-09-12T06:54:09.621Z,15.71
2018-09-12T06:56:39.560Z,15.76
2018-09-12T06:59:09.238Z,15.82
2018-09-12T07:01:38.467Z,15.78
2018-09-12T07:04:07.641Z,15.82
2018-09-12T07:06:36.607Z,15.83
2018-09-12T07:09:08.447Z,15.93
2018-09-12T07:11:37.578Z,16.06
2018-09-12T07:14:06.872Z,16.12
2018-09-12T07:16:36.902Z,16.28
2018-09-12T07:19:07.545Z,16.44
2018-09-12T07:21:36.601Z,16.48
2018-09-12T07:24:06.203Z,16.51
2018-09-12T07:26:35.299Z,16.59
2018-09-12T07:29:04.047Z,16.52
2018-09-12T07:31:32.871Z,16.44
2018-09-12T07:34:02.166Z,16.40
2018-09-12T07:36:31.064Z,16.42
2018-09-12T07:39:00.685Z,16.43
2018-09-12T07:41:29.941Z,16.47
2018-09-12T07:43:58.804Z,16.53
2018-09-12T07:46:27.694Z,16.53
2018-09-12T07:48:56.540Z,16.57
2018-09-12T07:51:25.939Z,16.63
2018-09-12T07:53:54.759Z,16.62
2018-09-12T07:56:24.293Z,16.64
2018-09-12T07:58:53.867Z,16.63
2018-09-12T08:01:23.123Z,16.68
2018-09-12T08:03:51.897Z,16.73
2018-09-12T08:06:20.839Z,16.74
2018-09-12T08:08:49.657Z,16.71
2018-09-12T08:11:18.518Z,16.70
2018-09-12T08:13:47.438Z,16.70
2018-09-12T08:16:16.280Z,16.74
2018-09-12T08:18:45.913Z,16.81
2018-09-12T08:21:14.750Z,16.89
2018-09-12T08:23:44.182Z,17.00
2018-09-12T08:26:12.924Z,17.12
2018-09-12T08:28:41.694Z,17.30
2018-09-12T08:31:10.551Z,17.46
2018-09-12T08:33:39.971Z,17.55
2018-09-12T08:36:08.749Z,17.61
2018-09-12T08:38:37.700Z,17.64
2018-09-12T08:41:06.704Z,17.66
2018-09-12T08:43:36.509Z,17.71
2018-09-12T08:46:05.565Z,17.76
2018-09-12T08:48:34.396Z,17.82
2018-09-12T08:51:03.165Z,17.87
2018-09-12T08:53:32.042Z,17.89
2018-09-12T08:56:01.664Z,17.88
2018-09-12T08:58:31.645Z,17.99
2018-09-12T09:01:01.322Z,18.08
2018-09-12T09:03:30.272Z,18.09
2018-09-12T09:05:59.113Z,17.98
2018-09-12T09:08:28.097Z,17.83
2018-09-12T09:10:56.868Z,17.68
2018-09-12T09:13:25.765Z,17.54
2018-09-12T09:15:55.621Z,17.43
2018-09-12T09:18:24.359Z,17.38
2018-09-12T09:20:53.097Z,17.28
2018-09-12T09:23:22.625Z,17.17
2018-09-12T09:25:51.385Z,17.09
2018-09-12T09:28:20.128Z,17.03
2018-09-12T09:30:48.879Z,17.04
2018-09-12T09:33:18.515Z,17.07
2018-09-12T09:35:47.513Z,17.14
2018-09-12T09:38:16.658Z,17.28
2018-09-12T09:40:45.422Z,17.31
2018-09-12T09:43:14.925Z,17.33
2018-09-12T09:45:43.649Z,17.35
2018-09-12T09:48:12.467Z,17.36
2018-09-12T09:50:41.250Z,17.41
2018-09-12T09:53:10.032Z,17.54
2018-09-12T09:55:39.658Z,17.53
2018-09-12T09:58:08.999Z,17.50
2018-09-12T10:00:45.372Z,17.46
2018-09-12T10:03:19.841Z,17.40
2018-09-12T10:05:53.746Z,17.31
2018-09-12T10:08:30.960Z,17.32
2018-09-12T10:11:00.247Z,17.31
2018-09-12T10:13:30.057Z,17.24
2018-09-12T10:15:58.899Z,17.10
2018-09-12T10:18:27.627Z,17.11
2018-09-12T10:20:56.355Z,17.32
2018-09-12T10:23:26.207Z,17.45
2018-09-12T10:25:54.982Z,17.48
2018-09-12T10:28:23.724Z,17.63
2018-09-12T10:30:52.515Z,17.78
2018-09-12T10:33:21.827Z,17.78
2018-09-12T10:35:50.623Z,17.84
2018-09-12T10:38:19.352Z,17.90
2018-09-12T10:40:48.610Z,17.93
2018-09-12T10:43:18.045Z,18.00
2018-09-12T10:45:46.843Z,18.01
2018-09-12T10:48:15.655Z,17.98
2018-09-12T10:50:44.421Z,18.05
2018-09-12T10:53:13.160Z,17.98
2018-09-12T10:55:42.358Z,17.97
2018-09-12T10:58:11.713Z,17.96
2018-09-12T11:00:41.115Z,17.89
2018-09-12T11:03:10.374Z,17.88
2018-09-12T11:05:39.084Z,17.87
2018-09-12T11:08:08.488Z,17.82
2018-09-12T11:10:38.791Z,17.75
2018-09-12T11:13:08.204Z,17.63
2018-09-12T11:15:37.918Z,17.58
2018-09-12T11:18:07.744Z,17.52
2018-09-12T11:20:36.694Z,17.46
2018-09-12T11:23:06.315Z,17.38
2018-09-12T11:25:35.066Z,17.19
2018-09-12T11:28:03.827Z,17.09
2018-09-12T11:30:32.592Z,17.01
2018-09-12T11:33:02.148Z,17.02
2018-09-12T11:35:31.395Z,17.08
2018-09-12T11:38:00.144Z,17.09
2018-09-12T11:40:28.856Z,17.15
2018-09-12T11:42:58.231Z,17.15
2018-09-12T11:45:26.968Z,17.13
2018-09-12T11:47:55.713Z,17.17
2018-09-12T11:50:24.681Z,17.30
2018-09-12T11:52:53.409Z,17.32
2018-09-12T11:55:22.436Z,17.33
2018-09-12T11:57:52.134Z,17.30
2018-09-12T12:00:22.019Z,17.32
2018-09-12T12:02:51.493Z,17.31
2018-09-12T12:05:20.316Z,17.20
2018-09-12T12:10:24.984Z,17.07
2018-09-12T12:12:53.788Z,17.20
2018-09-12T12:15:22.603Z,17.26
2018-09-12T12:17:51.535Z,17.26
2018-09-12T12:20:20.332Z,17.26
2018-09-12T12:22:49.779Z,17.41
2018-09-12T12:25:18.575Z,17.56
2018-09-12T12:27:47.330Z,17.56
2018-09-12T12:30:16.107Z,17.55
2018-09-12T12:32:45.890Z,17.60
2018-09-12T12:35:15.335Z,17.61
2018-09-12T12:37:44.416Z,17.67
2018-09-12T12:40:13.256Z,17.68
2018-09-12T12:42:42.822Z,17.74
2018-09-12T12:45:11.609Z,17.86
2018-09-12T12:47:40.384Z,17.99
2018-09-12T12:50:09.185Z,17.94
2018-09-12T12:52:38.067Z,17.95
2018-09-12T12:55:07.052Z,18.00
2018-09-12T12:57:36.893Z,18.08
2018-09-12T13:00:06.620Z,18.22
2018-09-12T13:02:37.231Z,18.30
2018-09-12T13:05:07.522Z,18.40
2018-09-12T13:07:36.766Z,18.34
2018-09-12T13:10:06.153Z,18.30
2018-09-12T13:12:35.623Z,18.08
2018-09-12T13:15:04.573Z,17.87
2018-09-12T13:17:33.476Z,17.68
2018-09-12T13:20:02.237Z,17.59
2018-09-12T13:22:31.932Z,17.61
2018-09-12T13:25:01.340Z,17.69
2018-09-12T13:27:30.137Z,17.76
2018-09-12T13:29:59.735Z,17.78
2018-09-12T13:32:29.785Z,17.86
2018-09-12T13:34:59.207Z,17.98
2018-09-12T13:37:28.132Z,18.02
2018-09-12T13:39:56.867Z,18.08
2018-09-12T13:42:26.139Z,18.16
2018-09-12T13:44:54.891Z,18.21
2018-09-12T13:47:23.675Z,18.10
2018-09-12T13:49:52.434Z,18.11
2018-09-12T13:52:21.194Z,18.08
2018-09-12T13:54:50.090Z,18.05
2018-09-12T13:57:20.367Z,18.02
2018-09-12T13:59:49.940Z,17.98
2018-09-12T14:02:19.388Z,17.94
2018-09-12T14:04:48.131Z,17.82
2018-09-12T14:07:16.860Z,17.71
2018-09-12T14:09:46.226Z,17.63
2018-09-12T14:12:14.971Z,17.55
2018-09-12T14:14:43.780Z,17.45
2018-09-12T14:17:12.535Z,17.35
2018-09-12T14:19:41.386Z,17.26
2018-09-12T14:22:11.067Z,17.19
2018-09-12T14:24:39.929Z,17.29
2018-09-12T14:27:08.678Z,17.45
2018-09-12T14:29:37.531Z,17.59
2018-09-12T14:32:06.552Z,17.58
2018-09-12T14:34:36.359Z,17.59
2018-09-12T14:37:05.396Z,17.59
2018-09-12T14:39:34.304Z,17.66
2018-09-12T14:42:03.798Z,17.71
2018-09-12T14:44:32.578Z,17.70
2018-09-12T14:47:01.336Z,17.72
2018-09-12T14:49:30.484Z,17.68
2018-09-12T14:51:59.301Z,17.57
2018-09-12T14:54:28.385Z,17.46
2018-09-12T14:56:57.904Z,17.50
2018-09-12T14:59:27.307Z,17.42
2018-09-12T15:01:57.487Z,17.46
2018-09-12T15:04:26.543Z,17.49
2018-09-12T15:06:55.295Z,17.52
2018-09-12T15:09:24.675Z,17.48
2018-09-12T15:11:53.415Z,17.50
2018-09-12T15:14:22.174Z,17.53
2018-09-12T15:16:50.963Z,17.50
2018-09-12T15:19:19.709Z,17.49
2018-09-12T15:21:48.700Z,17.49
2018-09-12T15:24:18.043Z,17.54
2018-09-12T15:26:46.936Z,17.55
2018-09-12T15:29:15.743Z,17.46
2018-09-12T15:31:44.536Z,17.32
2018-09-12T15:34:13.723Z,17.18
2018-09-12T15:36:42.515Z,17.16
2018-09-12T15:39:12.380Z,17.17
2018-09-12T15:41:42.468Z,17.18
2018-09-12T15:44:11.757Z,17.10
2018-09-12T15:46:40.545Z,17.09
2018-09-12T15:49:09.404Z,17.15
2018-09-12T15:51:39.489Z,17.16
2018-09-12T15:54:08.252Z,17.10
2018-09-12T15:56:37.992Z,17.01
2018-09-12T15:59:07.797Z,16.89
2018-09-12T16:01:37.257Z,16.79
2018-09-12T16:04:06.180Z,16.71
2018-09-12T16:06:37.761Z,16.66
2018-09-12T16:09:11.847Z,16.79
2018-09-12T16:11:40.851Z,16.94
2018-09-12T16:14:09.745Z,17.23
2018-09-12T16:16:39.452Z,17.33
2018-09-12T16:19:08.394Z,17.42
2018-09-12T16:21:37.576Z,17.52
2018-09-12T16:24:07.606Z,17.43
2018-09-12T16:26:39.062Z,17.41
2018-09-12T16:29:13.852Z,17.45
2018-09-12T16:31:46.606Z,17.26
2018-09-12T16:34:16.505Z,17.06
2018-09-12T16:36:45.853Z,16.78
2018-09-12T16:39:14.622Z,16.51
2018-09-12T16:41:44.336Z,16.30
2018-09-12T16:44:13.584Z,16.27
2018-09-12T16:46:42.651Z,16.32
2018-09-12T16:49:11.440Z,16.21
2018-09-12T16:51:41.310Z,16.08
2018-09-12T16:54:10.114Z,15.99
2018-09-12T16:56:40.073Z,15.88
2018-09-12T16:59:09.701Z,15.80
2018-09-12T17:01:39.255Z,15.76
2018-09-12T17:04:08.055Z,15.69
2018-09-12T17:06:36.950Z,15.60
2018-09-12T17:09:09.296Z,15.54
2018-09-12T17:11:39.166Z,15.44
2018-09-12T17:14:08.209Z,15.36
2018-09-12T17:16:38.275Z,15.27
2018-09-12T17:19:07.986Z,15.16
2018-09-12T17:21:37.511Z,15.09
2018-09-12T17:24:07.451Z,15.03
2018-09-12T17:26:36.559Z,14.95
2018-09-12T17:29:05.807Z,14.89
2018-09-12T17:31:34.716Z,14.83
2018-09-12T17:34:05.529Z,14.78
2018-09-12T17:36:34.329Z,14.72
2018-09-12T17:39:03.428Z,14.69
2018-09-12T17:41:33.060Z,14.64
2018-09-12T17:44:02.657Z,14.58
2018-09-12T17:46:32.320Z,14.51
2018-09-12T17:49:01.951Z,14.47
2018-09-12T17:51:31.420Z,14.43
2018-09-12T17:54:00.723Z,14.39
2018-09-12T17:56:31.134Z,14.35
2018-09-12T17:59:00.838Z,14.32
2018-09-12T18:01:31.372Z,14.27
2018-09-12T18:04:00.279Z,14.24
2018-09-12T18:06:29.628Z,14.24
2018-09-12T18:08:59.092Z,14.20
2018-09-12T18:11:27.925Z,14.17
2018-09-12T18:13:56.693Z,14.14
2018-09-12T18:16:25.537Z,14.10
2018-09-12T18:18:54.575Z,14.08
2018-09-12T18:21:23.562Z,14.05
2018-09-12T18:23:53.184Z,14.02
2018-09-12T18:26:21.916Z,14.01
2018-09-12T18:28:50.677Z,14.01
2018-09-12T18:31:19.432Z,13.96
2018-09-12T18:33:48.683Z,13.94
2018-09-12T18:36:17.441Z,13.93
2018-09-12T18:38:46.204Z,13.91
2018-09-12T18:41:15.631Z,13.88
2018-09-12T18:43:59.068Z,13.84
2018-09-12T18:46:28.669Z,13.83
2018-09-12T18:49:00.017Z,13.80
2018-09-12T18:51:29.453Z,13.76
2018-09-12T18:53:59.168Z,13.75
2018-09-12T18:56:28.624Z,13.72
2018-09-12T18:58:58.246Z,13.69
2018-09-12T19:01:27.516Z,13.68
2018-09-12T19:03:56.561Z,13.67
2018-09-12T19:06:25.320Z,13.66
2018-09-12T19:08:54.811Z,13.64
2018-09-12T19:11:23.562Z,13.63
2018-09-12T19:13:52.415Z,13.61
2018-09-12T19:16:21.175Z,13.59
2018-09-12T19:18:49.939Z,13.56
2018-09-12T19:21:18.879Z,13.53
2018-09-12T19:23:48.422Z,13.50
2018-09-12T19:26:17.217Z,13.47
2018-09-12T19:28:45.910Z,13.46
2018-09-12T19:31:14.680Z,13.46
2018-09-12T19:33:44.220Z,13.44
2018-09-12T19:36:13.004Z,13.41
2018-09-12T19:38:41.723Z,13.38
2018-09-12T19:41:10.878Z,13.36
2018-09-12T19:43:40.539Z,13.36
2018-09-12T19:46:09.287Z,13.35
2018-09-12T19:48:39.598Z,13.35
2018-09-12T19:51:16.836Z,13.33
2018-09-12T19:53:46.585Z,13.33
2018-09-12T19:56:16.565Z,13.30
2018-09-12T19:58:46.323Z,13.27
2018-09-12T20:01:15.900Z,13.23
2018-09-12T20:03:44.662Z,13.20
2018-09-12T20:06:13.411Z,13.19
2018-09-12T20:08:42.829Z,13.19
2018-09-12T20:11:11.543Z,13.17
2018-09-12T20:13:40.303Z,13.15
2018-09-12T20:16:09.241Z,13.14
2018-09-12T20:18:38.032Z,13.11
2018-09-12T20:21:07.994Z,13.09
2018-09-12T20:23:38.081Z,13.08
2018-09-12T20:26:06.936Z,13.05
2018-09-12T20:28:41.992Z,13.02
2018-09-12T20:31:11.231Z,13.00
2018-09-12T20:33:40.451Z,12.99
2018-09-12T20:36:09.182Z,12.99
2018-09-12T20:38:38.796Z,12.98
2018-09-12T20:41:07.971Z,12.96
2018-09-12T20:43:37.624Z,12.97
2018-09-12T20:46:07.139Z,12.98
2018-09-12T20:48:37.322Z,12.97
2018-09-12T20:51:06.401Z,12.96
2018-09-12T20:53:35.791Z,12.95
2018-09-12T20:56:05.472Z,12.95
2018-09-12T20:58:35.643Z,12.95
2018-09-12T21:01:05.276Z,12.97
2018-09-12T21:03:34.023Z,12.96
2018-09-12T21:06:02.783Z,12.96
2018-09-12T21:08:32.344Z,12.97
2018-09-12T21:11:01.116Z,12.97
2018-09-12T21:13:29.949Z,12.97
2018-09-12T21:15:58.732Z,12.96
2018-09-12T21:18:27.678Z,12.94
2018-09-12T21:20:56.673Z,12.93
2018-09-12T21:23:26.646Z,12.91
2018-09-12T21:25:55.407Z,12.91
2018-09-12T21:28:24.468Z,12.87
2018-09-12T21:30:53.286Z,12.86
2018-09-12T21:33:24.281Z,12.86
2018-09-12T21:35:53.141Z,12.84
2018-09-12T21:38:22.033Z,12.85
2018-09-12T21:40:50.922Z,12.85
2018-09-12T21:43:20.357Z,12.85
2018-09-12T21:45:49.163Z,12.82
2018-09-12T21:48:18.925Z,12.82
2018-09-12T21:50:47.796Z,12.81
2018-09-12T21:53:17.264Z,12.79
2018-09-12T21:55:46.883Z,12.77
2018-09-12T21:58:16.334Z,12.75
2018-09-12T22:00:45.936Z,12.75
2018-09-12T22:03:15.297Z,12.74
2018-09-12T22:05:44.335Z,12.74
2018-09-12T22:08:13.582Z,12.73
2018-09-12T22:10:42.503Z,12.74
2018-09-12T22:13:11.240Z,12.73
2018-09-12T22:15:40.123Z,12.72
2018-09-12T22:18:08.876Z,12.75
2018-09-12T22:20:38.601Z,12.75
2018-09-12T22:23:08.148Z,12.76
2018-09-12T22:25:37.312Z,12.75
2018-09-12T22:28:06.792Z,12.76
2018-09-12T22:30:35.787Z,12.76
2018-09-12T22:33:05.900Z,12.77
2018-09-12T22:35:35.075Z,12.78
2018-09-12T22:38:03.808Z,12.80
2018-09-12T22:40:32.571Z,12.80
2018-09-12T22:43:02.047Z,12.80
2018-09-12T22:45:30.979Z,12.81
2018-09-12T22:48:00.488Z,12.82
2018-09-12T22:50:30.095Z,12.83
2018-09-12T22:52:59.811Z,12.83
2018-09-12T22:55:28.621Z,12.83
2018-09-12T22:57:57.907Z,12.83
2018-09-12T23:00:27.422Z,12.82
2018-09-12T23:02:56.895Z,12.82
2018-09-12T23:05:25.660Z,12.81
2018-09-12T23:07:55.080Z,12.82
2018-09-12T23:10:23.819Z,12.83
2018-09-12T23:12:53.243Z,12.84
2018-09-12T23:15:21.976Z,12.85
2018-09-12T23:17:50.735Z,12.85
2018-09-12T23:20:19.504Z,12.85
2018-09-12T23:22:48.741Z,12.83
2018-09-12T23:25:17.595Z,12.83
2018-09-12T23:27:46.427Z,12.84
2018-09-12T23:30:15.210Z,12.84
2018-09-12T23:32:44.828Z,12.80
2018-09-12T23:35:13.648Z,12.82
2018-09-12T23:37:42.526Z,12.82
2018-09-12T23:40:11.955Z,12.82
2018-09-12T23:42:41.494Z,12.81
2018-09-12T23:45:10.677Z,12.80
2018-09-12T23:47:39.867Z,12.78
2018-09-12T23:50:08.672Z,12.77
2018-09-12T23:52:38.819Z,12.79
2018-09-12T23:55:07.812Z,12.79
2018-09-12T23:57:37.414Z,12.78
